Meredosia, IL (62665)

4:04 AM CST on February 10, 2016 (GMT -0600)
Illinois | | Change Station
CLOSE
Current Station
Personal Weather Station
Location: Chapin, IL
Elevation: 600 ft
Nearby Weather Stations

Elev 600 ft 39.79 °N, 90.37 °W | Updated 19 minutes ago

Partly Cloudy
Partly Cloudy
12.6 °F
Feels Like 6 °F
N
4.0
Wind Variable Wind from NNW
Gusts 9.0 mph

Today
High -- | Low -- °F
--% Chance of Precip.
Yesterday
High -- | Low -- °F
Precip. -- in
Pressure 30.15 in
Visibility 10.0 miles
Clouds Clear
Windchill 6 °F
Dew Point 7 °F
Humidity 79%
Rainfall 0.00 in
Snow Depth Not available.
7:01 AM 5:32 PM
Waxing Crescent, 4% visible
METAR KPPQ 100955Z AUTO 29006KT 10SM CLR M10/M15 A3015 RMK AO2 T11051150
Pressure 30.15 in
Visibility 10.0 miles
Clouds Clear
Windchill 6 °F
Dew Point 7 °F
Humidity 79%
Rainfall 0.00 in
Snow Depth Not available.
7:01 AM 5:32 PM
Waxing Crescent, 4% visible
METAR KPPQ 100955Z AUTO 29006KT 10SM CLR M10/M15 A3015 RMK AO2 T11051150

10-Day Weather Forecast

Almanac

Astronomy

Feb. 10, 2016 Rise Set
Actual Time
Civil Twilight
Nautical Twilight
Astronomical Twilight
Moon
Length of Visible Light
Length of Day
Tomorrow will be .
, % of the Moon is Illuminated

Today's Extremes

State Highs State Lows

Community

WunderPhotos

Upload Photos

1,891,828 photos uploaded!

WunderBlog® & News

Nearby

Air Quality

  Air Quality AQ Index Pollutant
Not available.

Snow Depth

Station Depth Elevation

Earthquake Activity

City Distance Mag. Time & Date
Minimum magnitude displayed is 2.5.

Coastal Water Temperatures

Place Temperature

Stations

Nearby Weather Stations

Station Location Temp. Windchill Dew Point Humidity Wind Precip. Elev Updated Type
                   

Watches & Warnings

There are currently no watches in effect.